createdAt,value
2022-10-23T00:01:18.862Z,101354.94
2022-10-23T00:03:47.877Z,101354.44
2022-10-23T00:06:15.634Z,101353.03
2022-10-23T00:08:44.290Z,101346.06
2022-10-23T00:11:15.143Z,101361.66
2022-10-23T00:13:43.300Z,101367.00
2022-10-23T00:16:11.212Z,101354.09
2022-10-23T00:18:39.291Z,101345.06
2022-10-23T00:21:11.282Z,101342.59
2022-10-23T00:23:39.193Z,101348.13
2022-10-23T00:26:08.464Z,101357.75
2022-10-23T00:28:36.179Z,101349.88
2022-10-23T00:31:05.622Z,101346.59
2022-10-23T00:33:33.524Z,101345.44
2022-10-23T00:36:01.280Z,101344.66
2022-10-23T00:38:29.062Z,101343.22
2022-10-23T00:40:56.840Z,101350.19
2022-10-23T00:43:27.208Z,101351.94
2022-10-23T00:45:55.833Z,101349.25
2022-10-23T00:48:23.997Z,101346.50
2022-10-23T00:50:52.533Z,101347.31
2022-10-23T00:53:23.312Z,101348.34
2022-10-23T00:55:54.055Z,101347.31
2022-10-23T00:58:22.141Z,101350.00
2022-10-23T01:00:55.524Z,101347.41
2022-10-23T01:03:27.810Z,101341.03
2022-10-23T01:06:15.774Z,101338.47
2022-10-23T01:08:55.507Z,101347.13
2022-10-23T01:11:39.079Z,101352.75
2022-10-23T01:14:18.190Z,101353.88
2022-10-23T01:16:57.634Z,101349.47
2022-10-23T01:19:57.943Z,101349.56
2022-10-23T01:22:44.659Z,101350.81
2022-10-23T01:25:37.492Z,101342.00
2022-10-23T01:28:11.672Z,101340.97
2022-10-23T01:30:44.717Z,101337.31
2022-10-23T01:33:33.300Z,101331.78
2022-10-23T01:36:08.905Z,101334.00
2022-10-23T01:38:46.741Z,101332.38
2022-10-23T01:41:35.930Z,101334.34
2022-10-23T01:44:40.394Z,101332.38
2022-10-23T01:47:11.790Z,101328.81
2022-10-23T01:50:02.761Z,101320.81
2022-10-23T01:52:31.030Z,101318.66
2022-10-23T01:55:01.440Z,101316.31
2022-10-23T01:57:33.888Z,101323.38
2022-10-23T02:00:07.529Z,101322.75
2022-10-23T02:02:52.816Z,101319.88
2022-10-23T02:05:26.632Z,101322.25
2022-10-23T02:07:56.720Z,101314.16
2022-10-23T02:11:06.247Z,101310.88
2022-10-23T02:13:46.390Z,101319.28
2022-10-23T02:16:43.909Z,101318.69
2022-10-23T02:19:42.636Z,101317.94
2022-10-23T02:22:23.401Z,101318.28
2022-10-23T02:25:01.235Z,101326.19
2022-10-23T02:27:40.848Z,101330.06
2022-10-23T02:30:12.027Z,101328.25
2022-10-23T02:32:44.953Z,101313.50
2022-10-23T02:35:14.157Z,101331.13
2022-10-23T02:37:42.404Z,101323.94
2022-10-23T02:40:11.827Z,101327.03
2022-10-23T02:43:23.311Z,101315.88
2022-10-23T02:46:10.220Z,101314.53
2022-10-23T02:48:51.688Z,101307.47
2022-10-23T02:51:26.270Z,101314.31
2022-10-23T02:53:59.893Z,101322.31
2022-10-23T02:56:38.527Z,101316.47
2022-10-23T02:59:18.385Z,101300.34
2022-10-23T03:01:52.185Z,101309.16
2022-10-23T03:04:24.162Z,101312.09
2022-10-23T03:06:52.249Z,101319.38
2022-10-23T03:09:20.064Z,101314.28
2022-10-23T03:11:47.835Z,101313.25
2022-10-23T03:14:15.651Z,101314.78
2022-10-23T03:16:43.426Z,101313.16
2022-10-23T03:21:45.149Z,101320.13
2022-10-23T03:24:13.098Z,101319.28
2022-10-23T03:26:43.707Z,101309.75
2022-10-23T03:29:11.444Z,101314.34
2022-10-23T03:31:45.121Z,101320.50
2022-10-23T03:34:13.947Z,101317.84
2022-10-23T03:36:42.383Z,101321.13
2022-10-23T03:39:11.316Z,101325.53
2022-10-23T03:41:39.019Z,101324.81
2022-10-23T03:44:06.768Z,101336.91
2022-10-23T03:46:34.641Z,101326.06
2022-10-23T03:49:02.451Z,101313.94
2022-10-23T03:51:30.319Z,101321.41
2022-10-23T03:53:58.636Z,101320.91
2022-10-23T03:56:26.573Z,101312.63
2022-10-23T03:58:54.335Z,101312.50
2022-10-23T04:01:25.224Z,101322.84
2022-10-23T04:03:53.227Z,101323.78
2022-10-23T04:06:23.567Z,101330.16
2022-10-23T04:08:55.956Z,101331.47
2022-10-23T04:11:23.858Z,101338.94
2022-10-23T04:13:51.599Z,101344.19
2022-10-23T04:16:19.397Z,101337.41
2022-10-23T04:18:47.277Z,101343.03
2022-10-23T04:21:15.112Z,101340.47
2022-10-23T04:23:43.141Z,101344.06
2022-10-23T04:26:16.402Z,101341.16
2022-10-23T04:28:44.199Z,101348.19
2022-10-23T04:31:12.504Z,101346.50
2022-10-23T04:33:42.375Z,101350.50
2022-10-23T04:36:10.364Z,101347.44
2022-10-23T04:38:38.088Z,101358.31
2022-10-23T04:41:07.430Z,101362.63
2022-10-23T04:43:35.486Z,101359.16
2022-10-23T04:46:04.458Z,101356.97
2022-10-23T04:48:32.629Z,101359.94
2022-10-23T04:51:19.341Z,101351.13
2022-10-23T04:54:05.552Z,101345.09
2022-10-23T04:56:56.501Z,101351.78
2022-10-23T04:59:25.322Z,101339.66
2022-10-23T05:01:53.083Z,101334.13
2022-10-23T05:04:20.964Z,101332.81
2022-10-23T05:07:06.944Z,101339.25
2022-10-23T05:09:50.920Z,101334.22
2022-10-23T05:12:27.803Z,101333.09
2022-10-23T05:14:55.867Z,101330.44
2022-10-23T05:17:39.579Z,101328.25
2022-10-23T05:20:12.884Z,101338.22
2022-10-23T05:22:43.046Z,101330.28
2022-10-23T05:25:13.732Z,101329.28
2022-10-23T05:27:46.466Z,101323.75
2022-10-23T05:30:16.596Z,101338.06
2022-10-23T05:32:45.117Z,101349.13
2022-10-23T05:35:22.237Z,101346.06
2022-10-23T05:37:54.370Z,101351.19
2022-10-23T05:40:25.223Z,101349.44
2022-10-23T05:42:59.443Z,101350.66
2022-10-23T05:45:41.864Z,101353.00
2022-10-23T05:48:34.952Z,101347.97
2022-10-23T05:51:23.671Z,101347.34
2022-10-23T05:54:17.758Z,101352.66
2022-10-23T05:57:18.761Z,101349.81
2022-10-23T05:59:50.488Z,101348.91
2022-10-23T06:02:27.308Z,101358.81
2022-10-23T06:05:02.939Z,101357.47
2022-10-23T06:07:47.665Z,101369.38
2022-10-23T06:10:15.610Z,101366.31
2022-10-23T06:12:46.711Z,101368.53
2022-10-23T06:15:17.420Z,101376.22
2022-10-23T06:18:06.058Z,101375.22
2022-10-23T06:20:37.961Z,101370.41
2022-10-23T06:23:23.112Z,101378.56
2022-10-23T06:26:29.234Z,101392.09
2022-10-23T06:29:02.212Z,101392.03
2022-10-23T06:31:30.649Z,101386.69
2022-10-23T06:33:59.894Z,101380.25
2022-10-23T06:36:29.958Z,101380.44
2022-10-23T06:39:10.348Z,101390.69
2022-10-23T06:42:01.445Z,101385.25
2022-10-23T06:44:47.880Z,101388.31
2022-10-23T06:47:24.982Z,101389.88
2022-10-23T06:50:14.595Z,101390.78
2022-10-23T06:52:47.293Z,101393.31
2022-10-23T06:55:18.569Z,101408.63
2022-10-23T06:57:47.288Z,101400.06
2022-10-23T07:00:15.464Z,101401.09
2022-10-23T07:02:53.461Z,101407.16
2022-10-23T07:05:21.416Z,101417.31
2022-10-23T07:07:49.223Z,101412.09
2022-10-23T07:10:23.196Z,101412.00
2022-10-23T07:13:01.094Z,101417.31
2022-10-23T07:15:41.077Z,101414.44
2022-10-23T07:18:14.768Z,101425.31
2022-10-23T07:21:01.273Z,101428.25
2022-10-23T07:23:30.976Z,101436.03
2022-10-23T07:26:10.321Z,101432.94
2022-10-23T07:28:38.962Z,101427.75
2022-10-23T07:31:06.756Z,101434.16
2022-10-23T07:33:57.501Z,101446.50
2022-10-23T07:36:25.418Z,101448.47
2022-10-23T07:38:53.313Z,101440.13
2022-10-23T07:41:21.856Z,101440.63
2022-10-23T07:43:49.652Z,101449.16
2022-10-23T07:46:17.535Z,101454.06
2022-10-23T07:48:45.337Z,101450.31
2022-10-23T07:51:16.040Z,101444.84
2022-10-23T07:53:50.412Z,101450.22
2022-10-23T07:56:56.693Z,101446.34
2022-10-23T07:59:29.369Z,101450.22
2022-10-23T08:02:01.455Z,101446.47
2022-10-23T08:04:34.030Z,101459.41
2022-10-23T08:07:09.559Z,101465.19
2022-10-23T08:09:42.562Z,101465.19
2022-10-23T08:12:10.494Z,101469.69
2022-10-23T08:14:38.696Z,101473.91
2022-10-23T08:17:09.998Z,101472.50
2022-10-23T08:20:04.537Z,101482.91
2022-10-23T08:22:39.303Z,101473.38
2022-10-23T08:25:07.618Z,101470.41
2022-10-23T08:27:35.359Z,101476.34
2022-10-23T08:30:03.515Z,101467.94
2022-10-23T08:32:31.730Z,101472.16
2022-10-23T08:35:00.873Z,101474.97
2022-10-23T08:37:31.969Z,101474.88
2022-10-23T08:40:00.034Z,101469.53
2022-10-23T08:42:57.277Z,101469.50
2022-10-23T08:45:47.504Z,101453.69
2022-10-23T08:49:12.319Z,101461.88
2022-10-23T08:51:54.995Z,101474.97
2022-10-23T08:54:55.343Z,101474.63
2022-10-23T08:57:24.289Z,101460.34
2022-10-23T09:00:14.999Z,101461.97
2022-10-23T09:02:48.809Z,101472.16
2022-10-23T09:05:35.290Z,101469.25
2022-10-23T09:08:05.646Z,101474.03
2022-10-23T09:10:42.870Z,101474.44
2022-10-23T09:13:28.577Z,101467.75
2022-10-23T09:16:23.299Z,101462.59
2022-10-23T09:18:51.019Z,101464.66
2022-10-23T09:21:18.934Z,101469.69
2022-10-23T09:23:46.702Z,101477.75
2022-10-23T09:26:18.754Z,101467.97
2022-10-23T09:28:49.569Z,101467.94
2022-10-23T09:31:18.257Z,101461.03
2022-10-23T09:33:59.923Z,101458.75
2022-10-23T09:36:29.634Z,101458.38
2022-10-23T09:39:00.394Z,101458.50
2022-10-23T09:41:31.080Z,101450.47
2022-10-23T09:44:07.769Z,101437.88
2022-10-23T09:46:43.630Z,101447.31
2022-10-23T09:49:27.363Z,101455.28
2022-10-23T09:52:06.271Z,101455.66
2022-10-23T09:54:38.644Z,101456.34
2022-10-23T09:57:18.262Z,101468.47
2022-10-23T09:59:52.024Z,101478.00
2022-10-23T10:02:29.425Z,101480.69
2022-10-23T10:05:24.377Z,101476.34
2022-10-23T10:08:00.153Z,101477.25
2022-10-23T10:10:40.033Z,101471.72
2022-10-23T10:13:30.588Z,101478.09
2022-10-23T10:16:44.598Z,101474.44
2022-10-23T10:19:28.262Z,101478.63
2022-10-23T10:22:20.535Z,101481.31
2022-10-23T10:24:59.513Z,101482.69
2022-10-23T10:27:46.011Z,101476.44
2022-10-23T10:30:16.649Z,101476.88
2022-10-23T10:32:52.043Z,101470.72
2022-10-23T10:35:27.060Z,101470.03
2022-10-23T10:38:26.870Z,101467.94
2022-10-23T10:41:19.158Z,101470.50
2022-10-23T10:44:08.172Z,101460.81
2022-10-23T10:46:53.957Z,101459.97
2022-10-23T10:49:31.820Z,101459.97
2022-10-23T10:52:37.971Z,101458.84
2022-10-23T10:55:33.985Z,101450.16
2022-10-23T10:58:11.018Z,101449.09
2022-10-23T11:00:38.907Z,101454.81
2022-10-23T11:03:39.978Z,101442.31
2022-10-23T11:06:16.057Z,101449.72
2022-10-23T11:08:57.644Z,101442.25
2022-10-23T11:11:41.093Z,101432.34
2022-10-23T11:14:26.872Z,101439.41
2022-10-23T11:17:06.002Z,101432.25
2022-10-23T11:19:41.756Z,101421.53
2022-10-23T11:22:43.242Z,101418.34
2022-10-23T11:25:44.988Z,101402.78
2022-10-23T11:28:30.754Z,101410.84
2022-10-23T11:31:32.963Z,101418.16
2022-10-23T11:34:12.925Z,101410.00
2022-10-23T11:36:53.133Z,101396.19
2022-10-23T11:39:25.172Z,101406.94
2022-10-23T11:42:11.919Z,101398.47
2022-10-23T11:44:47.122Z,101395.59
2022-10-23T11:47:58.306Z,101401.97
2022-10-23T11:50:38.308Z,101388.00
2022-10-23T11:53:23.405Z,101392.41
2022-10-23T11:56:02.084Z,101397.84
2022-10-23T11:58:54.018Z,101392.97
2022-10-23T12:01:43.277Z,101383.34
2022-10-23T12:04:45.673Z,101377.34
2022-10-23T12:07:30.415Z,101378.09
2022-10-23T12:10:40.673Z,101375.97
2022-10-23T12:13:36.628Z,101367.81
2022-10-23T12:16:10.212Z,101387.22
2022-10-23T12:18:51.045Z,101380.41
2022-10-23T12:21:22.274Z,101379.09
2022-10-23T12:24:13.184Z,101377.13
2022-10-23T12:26:50.956Z,101371.16
2022-10-23T12:29:27.614Z,101369.38
2022-10-23T12:32:07.859Z,101365.19
2022-10-23T12:34:42.557Z,101361.47
2022-10-23T12:37:28.896Z,101357.72
2022-10-23T12:39:56.853Z,101352.94
2022-10-23T12:42:27.334Z,101359.72
2022-10-23T12:45:24.287Z,101349.13
2022-10-23T12:47:52.994Z,101338.50
2022-10-23T12:50:22.471Z,101340.59
2022-10-23T12:52:57.677Z,101333.41
2022-10-23T12:55:35.834Z,101335.69
2022-10-23T12:58:03.914Z,101326.28
2022-10-23T13:00:32.127Z,101327.94
2022-10-23T13:03:02.300Z,101326.19
2022-10-23T13:05:32.445Z,101318.69
2022-10-23T13:08:04.853Z,101321.75
2022-10-23T13:10:44.331Z,101309.06
2022-10-23T13:13:14.538Z,101300.13
2022-10-23T13:15:44.469Z,101309.69
2022-10-23T13:18:14.658Z,101307.75
2022-10-23T13:20:44.043Z,101297.56
2022-10-23T13:23:18.863Z,101299.25
2022-10-23T13:25:57.537Z,101296.81
2022-10-23T13:28:43.181Z,101303.47
2022-10-23T13:31:10.957Z,101304.94
2022-10-23T13:33:45.867Z,101300.91
2022-10-23T13:36:16.897Z,101305.88
2022-10-23T13:39:02.222Z,101295.75
2022-10-23T13:41:47.826Z,101301.63
2022-10-23T13:44:21.230Z,101296.28
2022-10-23T13:46:49.846Z,101297.06
2022-10-23T13:49:18.602Z,101299.91
2022-10-23T13:51:55.563Z,101297.94
2022-10-23T13:54:25.573Z,101301.91
2022-10-23T13:56:55.198Z,101298.34
2022-10-23T13:59:23.539Z,101301.75
2022-10-23T14:01:52.275Z,101296.06
2022-10-23T14:04:21.113Z,101305.72
2022-10-23T14:06:58.688Z,101295.00
2022-10-23T14:09:26.673Z,101298.56
2022-10-23T14:11:54.466Z,101296.13
2022-10-23T14:14:22.242Z,101304.25
2022-10-23T14:16:50.018Z,101303.22
2022-10-23T14:19:17.755Z,101297.13
2022-10-23T14:21:45.523Z,101302.38
2022-10-23T14:24:14.840Z,101302.25
2022-10-23T14:26:43.349Z,101301.53
2022-10-23T14:29:18.702Z,101304.44
2022-10-23T14:31:49.312Z,101304.34
2022-10-23T14:34:17.230Z,101297.94
2022-10-23T14:36:50.238Z,101300.50
2022-10-23T14:39:24.410Z,101298.22
2022-10-23T14:41:52.126Z,101290.38
2022-10-23T14:44:19.883Z,101290.97
2022-10-23T14:46:47.713Z,101296.59
2022-10-23T14:49:15.485Z,101288.63
2022-10-23T14:51:43.284Z,101293.34
2022-10-23T14:54:11.024Z,101301.50
2022-10-23T14:56:42.360Z,101291.16
2022-10-23T14:59:11.755Z,101296.56
2022-10-23T15:01:45.132Z,101306.19
2022-10-23T15:04:14.865Z,101301.50
2022-10-23T15:06:43.930Z,101298.81
2022-10-23T15:09:11.689Z,101295.28
2022-10-23T15:11:39.861Z,101291.41
2022-10-23T15:14:07.741Z,101295.56
2022-10-23T15:16:41.433Z,101292.41
2022-10-23T15:19:13.457Z,101294.81
2022-10-23T15:21:44.999Z,101303.38
2022-10-23T15:24:12.836Z,101290.03
2022-10-23T15:26:43.212Z,101289.78
2022-10-23T15:29:12.546Z,101287.66
2022-10-23T15:31:43.259Z,101291.44
2022-10-23T15:34:14.564Z,101291.47
2022-10-23T15:36:43.315Z,101284.31
2022-10-23T15:39:13.211Z,101287.34
2022-10-23T15:41:43.446Z,101281.13
2022-10-23T15:44:17.847Z,101274.34
2022-10-23T15:46:46.005Z,101277.72
2022-10-23T15:49:13.842Z,101281.13
2022-10-23T15:51:42.714Z,101278.09
2022-10-23T15:54:17.411Z,101278.00
2022-10-23T15:56:51.749Z,101286.25
2022-10-23T15:59:24.041Z,101281.38
2022-10-23T16:01:52.543Z,101293.69
2022-10-23T16:04:20.578Z,101279.06
2022-10-23T16:06:49.327Z,101282.41
2022-10-23T16:09:17.500Z,101287.53
2022-10-23T16:11:45.535Z,101292.06
2022-10-23T16:14:17.609Z,101294.03
2022-10-23T16:16:45.859Z,101288.13
2022-10-23T16:19:13.780Z,101291.13
2022-10-23T16:21:42.161Z,101294.63
2022-10-23T16:24:10.398Z,101298.31
2022-10-23T16:26:40.866Z,101293.78
2022-10-23T16:29:09.667Z,101291.44
2022-10-23T16:31:37.786Z,101278.09
2022-10-23T16:34:06.523Z,101290.53
2022-10-23T16:36:35.447Z,101286.22
2022-10-23T16:39:22.092Z,101292.16
2022-10-23T16:42:08.681Z,101293.59
2022-10-23T16:44:51.709Z,101292.19
2022-10-23T16:47:19.763Z,101305.50
2022-10-23T16:49:47.614Z,101308.66
2022-10-23T16:52:15.984Z,101303.88
2022-10-23T16:54:44.614Z,101310.75
2022-10-23T16:57:12.455Z,101311.44
2022-10-23T16:59:40.354Z,101311.41
2022-10-23T17:02:11.189Z,101308.81
2022-10-23T17:04:40.180Z,101310.53
2022-10-23T17:07:08.175Z,101315.47
2022-10-23T17:09:36.645Z,101323.50
2022-10-23T17:12:04.632Z,101332.91
2022-10-23T17:14:32.663Z,101327.06
2022-10-23T17:17:05.778Z,101331.81
2022-10-23T17:19:44.536Z,101335.47
2022-10-23T17:22:14.037Z,101337.63
2022-10-23T17:24:44.317Z,101345.53
2022-10-23T17:27:14.121Z,101338.22
2022-10-23T17:29:43.089Z,101340.41
2022-10-23T17:32:11.130Z,101337.25
2022-10-23T17:34:38.943Z,101327.94
2022-10-23T17:37:08.855Z,101346.66
2022-10-23T17:39:36.730Z,101337.97
2022-10-23T17:42:04.664Z,101346.03
2022-10-23T17:44:32.513Z,101351.78
2022-10-23T17:47:00.247Z,101353.09
2022-10-23T17:49:28.087Z,101351.47
2022-10-23T17:51:57.666Z,101355.88
2022-10-23T17:54:27.070Z,101346.06
2022-10-23T17:56:55.250Z,101349.53
2022-10-23T17:59:23.279Z,101345.28
2022-10-23T18:01:51.297Z,101341.84
2022-10-23T18:04:20.715Z,101342.53
2022-10-23T18:06:51.180Z,101357.25
2022-10-23T18:09:20.250Z,101345.97
2022-10-23T18:11:48.662Z,101336.31
2022-10-23T18:14:18.680Z,101342.72
2022-10-23T18:16:46.884Z,101333.91
2022-10-23T18:19:18.450Z,101341.75
2022-10-23T18:21:47.918Z,101337.66
2022-10-23T18:24:16.494Z,101350.75
2022-10-23T18:26:44.806Z,101342.72
2022-10-23T18:29:12.941Z,101346.81
2022-10-23T18:31:41.645Z,101343.06
2022-10-23T18:34:16.927Z,101344.03
2022-10-23T18:36:45.396Z,101340.06
2022-10-23T18:39:17.082Z,101345.47
2022-10-23T18:41:46.680Z,101348.72
2022-10-23T18:44:40.093Z,101344.47
2022-10-23T18:47:08.540Z,101328.94
2022-10-23T18:49:36.417Z,101349.19
2022-10-23T18:52:04.536Z,101348.19
2022-10-23T18:54:32.459Z,101342.13
2022-10-23T18:57:00.366Z,101338.53
2022-10-23T18:59:28.604Z,101340.16
2022-10-23T19:01:56.822Z,101334.44
2022-10-23T19:04:24.802Z,101327.56
2022-10-23T19:06:52.863Z,101334.28
2022-10-23T19:09:21.951Z,101335.25
2022-10-23T19:11:49.896Z,101342.25
2022-10-23T19:14:17.763Z,101337.84
2022-10-23T19:17:07.961Z,101335.38
2022-10-23T19:19:43.544Z,101337.00
2022-10-23T19:22:12.747Z,101340.06
2022-10-23T19:24:46.042Z,101334.50
2022-10-23T19:27:14.141Z,101337.44
2022-10-23T19:29:45.420Z,101345.75
2022-10-23T19:32:14.832Z,101351.47
2022-10-23T19:34:45.615Z,101359.09
2022-10-23T19:39:46.834Z,101350.66
2022-10-23T19:42:15.026Z,101358.69
2022-10-23T19:44:42.747Z,101360.03
2022-10-23T19:47:11.754Z,101360.72
2022-10-23T19:49:39.700Z,101362.97
2022-10-23T19:52:07.800Z,101359.41
2022-10-23T19:54:37.930Z,101358.59
2022-10-23T19:57:05.709Z,101371.00
2022-10-23T19:59:34.082Z,101365.38
2022-10-23T20:02:02.524Z,101361.69
2022-10-23T20:04:30.744Z,101359.78
2022-10-23T20:07:01.936Z,101364.19
2022-10-23T20:09:31.027Z,101358.94
2022-10-23T20:12:00.647Z,101345.00
2022-10-23T20:14:28.639Z,101343.94
2022-10-23T20:16:56.611Z,101334.09
2022-10-23T20:19:25.001Z,101345.56
2022-10-23T20:21:52.921Z,101350.09
2022-10-23T20:24:21.586Z,101350.81
2022-10-23T20:26:52.205Z,101339.84
2022-10-23T20:29:21.043Z,101342.09
2022-10-23T20:31:50.738Z,101352.50
2022-10-23T20:34:19.339Z,101365.31
2022-10-23T20:36:50.034Z,101368.94
2022-10-23T20:39:25.652Z,101365.97
2022-10-23T20:41:55.463Z,101360.72
2022-10-23T20:44:24.740Z,101358.28
2022-10-23T20:46:52.926Z,101364.72
2022-10-23T20:49:21.825Z,101366.28
2022-10-23T20:51:56.460Z,101365.44
2022-10-23T20:54:28.975Z,101357.66
2022-10-23T20:57:00.062Z,101345.88
2022-10-23T20:59:28.807Z,101351.09
2022-10-23T21:01:57.625Z,101357.13
2022-10-23T21:04:27.882Z,101358.72
2022-10-23T21:07:09.293Z,101380.06
2022-10-23T21:10:03.687Z,101375.97
2022-10-23T21:12:37.843Z,101379.88
2022-10-23T21:15:06.783Z,101382.94
2022-10-23T21:17:38.836Z,101385.81
2022-10-23T21:20:07.585Z,101390.75
2022-10-23T21:22:35.378Z,101389.53
2022-10-23T21:25:03.238Z,101382.25
2022-10-23T21:27:31.137Z,101378.38
2022-10-23T21:29:58.995Z,101375.78
2022-10-23T21:32:26.777Z,101369.75
2022-10-23T21:34:55.241Z,101357.56
2022-10-23T21:37:25.190Z,101360.22
2022-10-23T21:39:52.964Z,101353.38
2022-10-23T21:42:20.840Z,101345.59
2022-10-23T21:44:48.654Z,101343.72
2022-10-23T21:47:16.410Z,101338.09
2022-10-23T21:49:44.323Z,101334.38
2022-10-23T21:52:14.005Z,101330.28
2022-10-23T21:54:44.000Z,101330.50
2022-10-23T21:57:15.229Z,101337.13
2022-10-23T21:59:44.333Z,101338.47
2022-10-23T22:02:12.270Z,101337.28
2022-10-23T22:04:40.154Z,101336.75
2022-10-23T22:07:10.934Z,101344.25
2022-10-23T22:09:38.739Z,101345.81
2022-10-23T22:12:06.460Z,101343.22
2022-10-23T22:14:36.264Z,101340.16
2022-10-23T22:17:04.056Z,101351.94
2022-10-23T22:19:31.991Z,101341.69
2022-10-23T22:21:59.769Z,101337.59
2022-10-23T22:24:27.572Z,101340.28
2022-10-23T22:26:56.755Z,101328.28
2022-10-23T22:29:27.263Z,101334.66
2022-10-23T22:31:55.417Z,101342.84
2022-10-23T22:34:48.003Z,101338.75
2022-10-23T22:37:13.642Z,101327.28
2022-10-23T22:39:41.545Z,101322.16
2022-10-23T22:42:09.596Z,101318.03
2022-10-23T22:44:37.367Z,101318.34
2022-10-23T22:47:05.360Z,101315.88
2022-10-23T22:49:33.132Z,101329.13
2022-10-23T22:52:00.980Z,101316.81
2022-10-23T22:54:30.593Z,101316.50
2022-10-23T22:56:58.474Z,101302.38
2022-10-23T22:59:26.293Z,101310.97
2022-10-23T23:01:54.396Z,101308.50
2022-10-23T23:04:38.616Z,101298.56
2022-10-23T23:07:07.605Z,101302.28
2022-10-23T23:09:44.048Z,101302.28
2022-10-23T23:12:13.933Z,101284.22
2022-10-23T23:14:42.341Z,101292.66
2022-10-23T23:17:10.772Z,101297.34
2022-10-23T23:19:38.808Z,101309.94
2022-10-23T23:22:06.834Z,101308.41
2022-10-23T23:24:34.583Z,101301.06
2022-10-23T23:27:02.452Z,101298.78
2022-10-23T23:29:30.209Z,101309.03
2022-10-23T23:31:58.339Z,101302.19
2022-10-23T23:34:26.243Z,101305.25
2022-10-23T23:36:53.976Z,101301.66
2022-10-23T23:39:21.700Z,101310.06
2022-10-23T23:41:49.604Z,101296.84
2022-10-23T23:44:17.374Z,101299.00
2022-10-23T23:46:45.098Z,101296.56
2022-10-23T23:49:12.867Z,101298.19
2022-10-23T23:51:40.710Z,101304.31
2022-10-23T23:54:08.486Z,101295.31
2022-10-23T23:56:36.235Z,101290.19
2022-10-23T23:59:04.529Z,101305.94
